Time;durP1;ratioP1;P1;durP2;ratioP2;P2;SDS_P1;SDS_P2;PMS_P1;PMS_P2;Temp;Humidity;BMP_temperature;BMP_pressure;BME280_temperature;BME280_humidity;BME280_pressure;Samples;Min_cycle;Max_cycle;Signal;HPM_P1;HPM_P2
2022/05/26 00:02:23;;;;;;;0.57;0.40;;;14.10;99.90;;;;;;5016822;28;20481;-73
2022/05/26 00:04:48;;;;;;;0.30;0.30;;;14.10;99.90;;;;;;4966246;28;20368;-72
2022/05/26 00:07:15;;;;;;;0.85;0.70;;;14.10;99.90;;;;;;5013513;28;20088;-72
2022/05/26 00:09:42;;;;;;;0.40;0.40;;;14.10;99.90;;;;;;5016514;28;20137;-73
2022/05/26 00:12:10;;;;;;;0.40;0.40;;;14.10;99.90;;;;;;5016416;28;20049;-72
2022/05/26 00:14:36;;;;;;;0.32;0.32;;;14.10;99.90;;;;;;5016334;28;20120;-73
2022/05/26 00:17:01;;;;;;;0.32;0.32;;;14.20;99.90;;;;;;5016381;28;20439;-72
2022/05/26 00:19:27;;;;;;;3.63;0.82;;;14.10;99.90;;;;;;5013023;28;20062;-73
2022/05/26 00:21:53;;;;;;;0.40;0.40;;;14.20;99.90;;;;;;5016657;28;20196;-73
2022/05/26 00:24:20;;;;;;;0.40;0.40;;;14.20;99.90;;;;;;4999444;28;20371;-72
2022/05/26 00:26:46;;;;;;;0.40;0.40;;;14.20;99.90;;;;;;5016210;28;20050;-73
2022/05/26 00:29:12;;;;;;;1.02;0.52;;;14.20;99.90;;;;;;5016095;28;20475;-72
2022/05/26 00:31:38;;;;;;;0.40;0.40;;;14.10;99.90;;;;;;5016133;28;20054;-73
2022/05/26 00:34:04;;;;;;;2.30;2.20;;;14.10;99.90;;;;;;5015763;28;20046;-72
2022/05/26 00:36:38;;;;;;;0.50;0.50;;;14.10;99.90;;;;;;5015822;28;20491;-73
2022/05/26 00:39:06;;;;;;;0.40;0.40;;;14.10;99.90;;;;;;5016327;28;20056;-72
2022/05/26 00:41:32;;;;;;;0.70;0.63;;;14.10;99.90;;;;;;5015945;28;20049;-73
2022/05/26 00:43:57;;;;;;;0.38;0.38;;;14.10;99.90;;;;;;4999206;28;20050;-73
2022/05/26 00:46:35;;;;;;;1.38;1.08;;;14.00;99.90;;;;;;4998516;28;20096;-72
2022/05/26 00:49:02;;;;;;;1.27;1.20;;;14.00;99.90;;;;;;5016494;28;20052;-74
2022/05/26 00:51:33;;;;;;;0.30;0.30;;;14.00;99.90;;;;;;5015689;28;20069;-73
2022/05/26 00:54:03;;;;;;;0.50;0.50;;;14.00;99.90;;;;;;5015831;28;20485;-74
2022/05/26 00:56:56;;;;;;;0.88;0.82;;;14.00;99.90;;;;;;4995730;28;20089;-72
2022/05/26 00:59:43;;;;;;;0.40;0.40;;;14.00;99.90;;;;;;5016021;28;20096;-73
2022/05/26 01:02:12;;;;;;;0.40;0.40;;;14.00;99.90;;;;;;5015599;28;20120;-72
2022/05/26 01:04:52;;;;;;;0.38;0.38;;;14.00;99.90;;;;;;5015092;28;20074;-72
2022/05/26 01:07:23;;;;;;;0.40;0.40;;;14.10;99.90;;;;;;5015477;28;20049;-73
2022/05/26 01:09:48;;;;;;;0.57;0.57;;;14.00;99.90;;;;;;5016212;28;20042;-73
2022/05/26 01:12:14;;;;;;;0.68;0.57;;;14.00;99.90;;;;;;5015456;28;20057;-73
2022/05/26 01:14:53;;;;;;;0.63;0.63;;;14.00;99.90;;;;;;5015491;28;20056;-73
2022/05/26 01:17:40;;;;;;;0.40;0.40;;;14.10;99.90;;;;;;4998312;28;20050;-72
2022/05/26 01:20:30;;;;;;;10.68;2.38;;;14.10;99.90;;;;;;4998000;28;20137;-72
2022/05/26 01:23:19;;;;;;;4.93;0.60;;;14.10;99.90;;;;;;5015154;28;20423;-73
2022/05/26 01:25:56;;;;;;;2.63;1.05;;;14.10;99.90;;;;;;5015303;28;20064;-73
2022/05/26 01:28:43;;;;;;;1.80;1.02;;;14.10;99.90;;;;;;4997926;28;20046;-74
2022/05/26 01:31:44;;;;;;;1.75;0.73;;;14.10;99.90;;;;;;5015185;28;20426;-74
2022/05/26 01:34:13;;;;;;;0.50;0.50;;;14.10;99.90;;;;;;5015135;28;20129;-73
2022/05/26 01:36:58;;;;;;;0.80;0.80;;;14.10;99.90;;;;;;4997730;28;20139;-73
2022/05/26 01:39:37;;;;;;;0.45;0.45;;;14.10;99.90;;;;;;5015047;28;20081;-74
2022/05/26 01:42:41;;;;;;;0.50;0.50;;;14.10;99.90;;;;;;5015153;28;20085;-72
2022/05/26 01:45:25;;;;;;;0.60;0.60;;;14.10;99.90;;;;;;4998125;28;20054;-73
2022/05/26 01:48:14;;;;;;;0.50;0.50;;;14.10;99.90;;;;;;5014940;28;20045;-73
2022/05/26 01:50:44;;;;;;;0.30;0.30;;;14.00;99.90;;;;;;5015597;28;20336;-73
2022/05/26 01:53:47;;;;;;;0.43;0.40;;;14.00;99.90;;;;;;5014583;28;20458;-72
2022/05/26 01:56:20;;;;;;;1.35;0.70;;;13.90;99.90;;;;;;5015228;28;20421;-73
2022/05/26 01:58:56;;;;;;;0.70;0.70;;;14.00;99.90;;;;;;5015048;28;20426;-73
2022/05/26 02:01:30;;;;;;;0.80;0.80;;;13.90;99.90;;;;;;5014674;28;20064;-73
2022/05/26 02:03:57;;;;;;;;;;;13.90;99.90;;;;;;5015274;28;20155;-72
2022/05/26 02:06:30;;;;;;;0.73;0.70;;;13.90;99.90;;;;;;5015249;28;19922;-73
2022/05/26 02:09:06;;;;;;;0.80;0.80;;;13.90;99.90;;;;;;4997993;28;20042;-72
2022/05/26 02:11:35;;;;;;;0.35;0.35;;;13.90;99.90;;;;;;4997380;28;20061;-72
2022/05/26 02:14:13;;;;;;;0.77;0.77;;;13.90;99.90;;;;;;5014661;28;20046;-74
2022/05/26 02:16:51;;;;;;;1.35;1.08;;;13.90;99.90;;;;;;4998070;28;20062;-73
2022/05/26 02:19:25;;;;;;;2.13;1.35;;;14.00;99.90;;;;;;5001350;28;20050;-73
2022/05/26 02:22:07;;;;;;;1.20;0.90;;;13.90;99.90;;;;;;5018570;28;20133;-72
2022/05/26 02:24:40;;;;;;;0.73;0.73;;;13.90;99.90;;;;;;5018076;28;20042;-73
2022/05/26 02:27:06;;;;;;;0.45;0.45;;;13.90;99.90;;;;;;5018767;28;20474;-74
2022/05/26 02:32:21;;;;;;;2.58;2.08;;;13.90;99.90;;;;;;5018287;28;20045;-73
2022/05/26 02:34:48;;;;;;;2.15;1.13;;;13.90;99.90;;;;;;5001369;28;20135;-74
2022/05/26 02:37:16;;;;;;;0.50;0.50;;;13.90;99.90;;;;;;5017811;28;20503;-73
2022/05/26 02:39:42;;;;;;;2.45;1.10;;;13.90;99.90;;;;;;5018743;28;20042;-73
2022/05/26 02:42:08;;;;;;;1.67;1.58;;;13.90;99.90;;;;;;5001079;28;20124;-72
2022/05/26 02:44:34;;;;;;;0.40;0.40;;;13.90;99.90;;;;;;5018364;28;20093;-73
2022/05/26 02:47:40;;;;;;;0.40;0.40;;;13.90;99.90;;;;;;5018194;28;20073;-72
2022/05/26 02:50:30;;;;;;;0.40;0.40;;;13.90;99.90;;;;;;4972328;28;20058;-73
2022/05/26 02:53:05;;;;;;;0.85;0.85;;;13.90;99.90;;;;;;4987460;28;20054;-74
2022/05/26 02:56:03;;;;;;;0.50;0.45;;;13.90;99.90;;;;;;5001006;28;20425;-72
2022/05/26 02:58:41;;;;;;;0.70;0.70;;;13.80;99.90;;;;;;5000499;28;20060;-73
2022/05/26 03:01:19;;;;;;;0.38;0.38;;;13.80;99.90;;;;;;5017821;28;20054;-74
2022/05/26 03:03:52;;;;;;;0.65;0.65;;;13.80;99.90;;;;;;5017843;28;20406;-73
2022/05/26 03:06:49;;;;;;;1.27;0.90;;;13.70;99.90;;;;;;5017504;28;20048;-73
2022/05/26 03:09:15;;;;;;;0.50;0.50;;;13.70;99.90;;;;;;5009772;28;20073;-73
2022/05/26 03:11:44;;;;;;;1.48;0.70;;;13.60;99.90;;;;;;5000331;28;20045;-72
2022/05/26 03:14:10;;;;;;;4.95;2.13;;;13.60;99.90;;;;;;5017537;28;20053;-73
2022/05/26 03:16:35;;;;;;;0.55;0.55;;;13.50;99.90;;;;;;5017438;28;20072;-73
2022/05/26 03:19:01;;;;;;;0.55;0.55;;;13.50;99.90;;;;;;5017261;28;20485;-73
2022/05/26 03:21:27;;;;;;;0.40;0.40;;;13.50;99.90;;;;;;5017501;28;20054;-72
2022/05/26 03:23:52;;;;;;;0.30;0.30;;;13.50;99.90;;;;;;5017721;28;20042;-74
2022/05/26 03:26:18;;;;;;;0.50;0.50;;;13.50;99.90;;;;;;5017360;28;20530;-73
2022/05/26 03:28:44;;;;;;;1.02;0.47;;;13.50;99.90;;;;;;5017031;28;20045;-72
2022/05/26 03:31:11;;;;;;;0.35;0.35;;;13.50;99.90;;;;;;5017324;28;20046;-74
2022/05/26 03:42:16;;;;;;;0.90;0.90;;;13.40;99.90;;;;;;4994776;28;20045;-73
2022/05/26 03:44:43;;;;;;;0.47;0.47;;;13.40;99.90;;;;;;5017202;28;20065;-74
2022/05/26 03:47:08;;;;;;;0.40;0.40;;;13.40;99.90;;;;;;5016948;28;20060;-73
2022/05/26 03:49:34;;;;;;;0.80;0.60;;;13.40;99.90;;;;;;5016895;28;20042;-73
2022/05/26 03:52:00;;;;;;;0.40;0.40;;;13.30;99.90;;;;;;5016993;28;20121;-73
2022/05/26 03:54:25;;;;;;;0.60;0.60;;;13.30;99.90;;;;;;5016426;28;20049;-72
2022/05/26 03:56:51;;;;;;;0.40;0.40;;;13.30;99.90;;;;;;5016804;28;20042;-74
2022/05/26 03:59:17;;;;;;;0.40;0.40;;;13.30;99.90;;;;;;5016481;28;20053;-74
2022/05/26 04:01:43;;;;;;;0.45;0.45;;;13.30;99.90;;;;;;5016704;28;20042;-74
2022/05/26 04:04:08;;;;;;;0.35;0.35;;;13.30;99.90;;;;;;5016443;28;20046;-73
2022/05/26 04:06:34;;;;;;;0.40;0.40;;;13.40;99.90;;;;;;5016590;28;20340;-72
2022/05/26 04:08:59;;;;;;;0.50;0.50;;;13.40;99.90;;;;;;5016188;28;20044;-74
2022/05/26 04:11:25;;;;;;;0.70;0.70;;;13.50;99.90;;;;;;5016863;28;20050;-73
2022/05/26 04:13:52;;;;;;;0.88;0.88;;;13.50;99.90;;;;;;5016569;28;20072;-73
2022/05/26 04:16:19;;;;;;;0.73;0.73;;;13.60;99.90;;;;;;5008175;28;20128;-73
2022/05/26 04:18:44;;;;;;;0.82;0.50;;;13.60;99.90;;;;;;5016885;28;20149;-73
2022/05/26 04:21:11;;;;;;;0.77;0.57;;;13.60;99.90;;;;;;5016418;28;20073;-73
2022/05/26 04:23:37;;;;;;;1.10;1.10;;;13.60;99.90;;;;;;5015781;28;20478;-72
2022/05/26 04:26:05;;;;;;;1.17;0.88;;;13.60;99.90;;;;;;5016319;28;20049;-73
2022/05/26 04:28:31;;;;;;;0.65;0.63;;;13.60;99.90;;;;;;5016450;28;20089;-74
2022/05/26 04:30:56;;;;;;;0.50;0.50;;;13.60;99.90;;;;;;5016173;28;20397;-73
2022/05/26 04:33:22;;;;;;;1.60;1.30;;;13.50;99.90;;;;;;5016156;28;20111;-74
2022/05/26 04:35:48;;;;;;;5.20;1.02;;;13.60;99.90;;;;;;5015993;28;20496;-72
2022/05/26 04:38:13;;;;;;;0.40;0.40;;;13.60;99.90;;;;;;4998590;28;20121;-73
2022/05/26 04:40:39;;;;;;;0.38;0.38;;;13.60;99.90;;;;;;5015383;28;20529;-73
2022/05/26 04:43:06;;;;;;;0.55;0.55;;;13.70;99.90;;;;;;4999206;28;20089;-74
2022/05/26 04:45:32;;;;;;;1.15;0.70;;;13.70;99.90;;;;;;4999052;28;20095;-73
2022/05/26 04:47:58;;;;;;;0.40;0.40;;;13.70;99.90;;;;;;5015864;28;20485;-74
2022/05/26 04:50:23;;;;;;;0.50;0.50;;;13.70;99.90;;;;;;5016024;28;20046;-72
2022/05/26 04:52:49;;;;;;;0.55;0.55;;;13.90;99.90;;;;;;5015565;28;20390;-74
2022/05/26 04:55:15;;;;;;;1.05;1.05;;;13.90;99.90;;;;;;4998670;28;20046;-74
2022/05/26 04:57:40;;;;;;;0.60;0.60;;;13.90;99.90;;;;;;4998441;28;20048;-74
2022/05/26 05:00:10;;;;;;;0.43;0.43;;;14.10;99.90;;;;;;5015910;28;20061;-73
2022/05/26 05:02:36;;;;;;;1.10;0.60;;;14.20;99.90;;;;;;5015801;28;20045;-74
2022/05/26 05:05:02;;;;;;;1.55;1.45;;;14.30;99.90;;;;;;4995795;28;20046;-73
2022/05/26 05:07:28;;;;;;;0.40;0.40;;;14.40;99.90;;;;;;4982320;28;20050;-73
2022/05/26 05:09:53;;;;;;;0.30;0.30;;;14.50;99.90;;;;;;5015513;28;20064;-73
2022/05/26 05:12:21;;;;;;;0.38;0.38;;;14.70;99.90;;;;;;4998140;28;20353;-73
2022/05/26 05:14:49;;;;;;;0.60;0.60;;;15.00;99.90;;;;;;4998343;28;20046;-74
2022/05/26 05:17:19;;;;;;;0.75;0.75;;;15.60;99.90;;;;;;5015976;28;20061;-73
2022/05/26 05:19:46;;;;;;;0.40;0.40;;;16.00;99.90;;;;;;5015113;28;20085;-74
2022/05/26 05:22:16;;;;;;;0.30;0.30;;;16.10;99.90;;;;;;5015322;28;20050;-73
2022/05/26 05:25:01;;;;;;;1.05;1.02;;;16.20;99.90;;;;;;5014658;28;20085;-74
2022/05/26 05:27:35;;;;;;;0.30;0.30;;;16.60;99.90;;;;;;5014932;28;20064;-75
2022/05/26 05:30:05;;;;;;;1.20;0.77;;;18.00;99.90;;;;;;5015369;28;20081;-74
2022/05/26 05:32:45;;;;;;;0.43;0.43;;;19.60;99.90;;;;;;4997671;28;20103;-73
2022/05/26 05:35:18;;;;;;;1.02;0.65;;;20.60;99.90;;;;;;5015187;28;20053;-75
2022/05/26 05:37:43;;;;;;;0.30;0.30;;;21.40;99.90;;;;;;4997775;28;20054;-74
2022/05/26 05:40:09;;;;;;;0.60;0.45;;;21.60;99.90;;;;;;5014822;28;20127;-73
2022/05/26 05:42:36;;;;;;;0.63;0.40;;;21.00;99.90;;;;;;5012037;28;20049;-74
2022/05/26 05:45:01;;;;;;;0.20;0.20;;;20.40;99.90;;;;;;5014986;28;20056;-74
2022/05/26 05:47:27;;;;;;;0.20;0.20;;;20.00;99.90;;;;;;5015443;28;20486;-74
2022/05/26 05:49:52;;;;;;;0.98;0.98;;;19.20;99.90;;;;;;4997937;28;20056;-75
2022/05/26 05:52:21;;;;;;;0.20;0.20;;;19.20;99.90;;;;;;5015209;28;20052;-74
2022/05/26 05:54:46;;;;;;;4.80;0.68;;;19.30;99.90;;;;;;5014733;28;20132;-75
2022/05/26 05:57:12;;;;;;;2.65;1.13;;;20.10;99.90;;;;;;5014676;28;20128;-76
2022/05/26 05:59:38;;;;;;;0.80;0.20;;;21.20;99.90;;;;;;5014673;28;20141;-74
2022/05/26 06:02:04;;;;;;;0.20;0.20;;;21.30;99.90;;;;;;5015120;28;20107;-75
2022/05/26 06:04:30;;;;;;;0.40;0.40;;;21.70;99.90;;;;;;5014809;28;20046;-73
2022/05/26 06:06:58;;;;;;;0.65;0.45;;;22.60;99.90;;;;;;5014555;28;20046;-74
2022/05/26 06:09:23;;;;;;;0.10;0.10;;;23.30;99.90;;;;;;5014770;28;20116;-73
2022/05/26 06:11:49;;;;;;;0.20;0.20;;;23.90;99.90;;;;;;4997639;28;20049;-74
2022/05/26 06:14:16;;;;;;;0.10;0.10;;;24.50;99.90;;;;;;5014410;28;20455;-74
2022/05/26 06:16:42;;;;;;;0.20;0.20;;;25.20;99.90;;;;;;4997966;28;20160;-74
2022/05/26 06:19:08;;;;;;;0.10;0.10;;;25.60;99.90;;;;;;5015380;28;20089;-75
2022/05/26 06:21:37;;;;;;;0.10;0.10;;;26.10;98.60;;;;;;5015135;28;20425;-74
2022/05/26 06:24:03;;;;;;;9.65;0.65;;;26.30;96.70;;;;;;5014424;28;20046;-74
2022/05/26 06:26:29;;;;;;;0.85;0.73;;;26.40;96.70;;;;;;4994324;28;20057;-76
2022/05/26 06:37:13;;;;;;;1.55;0.55;;;26.30;94.80;;;;;;5014532;28;20050;-73
2022/05/26 06:37:13;;;;;;;0.10;0.10;;;26.30;94.10;;;;;;5013965;28;20506;-72
2022/05/26 06:39:38;;;;;;;3.40;0.50;;;26.80;94.30;;;;;;5014927;28;20444;-74
2022/05/26 06:42:07;;;;;;;0.17;0.10;;;27.20;93.70;;;;;;4997976;28;20148;-71
2022/05/26 06:44:39;;;;;;;0.10;0.10;;;26.60;92.90;;;;;;5014577;28;20046;-73
2022/05/26 06:47:20;;;;;;;0.73;0.73;;;25.30;92.40;;;;;;5014601;28;20054;-73
2022/05/26 06:49:48;;;;;;;0.15;0.15;;;25.00;94.00;;;;;;5014812;28;20064;-73
2022/05/26 06:52:15;;;;;;;7.47;0.82;;;24.50;94.00;;;;;;5014366;28;20058;-72
2022/05/26 06:54:44;;;;;;;0.10;0.10;;;23.60;95.00;;;;;;5014428;28;20046;-75
2022/05/26 06:57:12;;;;;;;0.20;0.20;;;22.60;95.90;;;;;;5014423;28;20037;-74
2022/05/26 06:59:38;;;;;;;0.20;0.20;;;22.00;98.00;;;;;;4997291;28;20045;-73
2022/05/26 07:02:06;;;;;;;0.50;0.50;;;21.80;99.90;;;;;;5014260;28;20380;-75
2022/05/26 07:04:33;;;;;;;0.40;0.20;;;21.80;99.90;;;;;;5000894;28;20519;-74
2022/05/26 07:06:59;;;;;;;0.35;0.35;;;21.50;99.90;;;;;;5018005;28;20169;-74
2022/05/26 07:09:25;;;;;;;0.43;0.22;;;21.30;99.30;;;;;;5017703;28;20053;-74
2022/05/26 07:11:52;;;;;;;0.30;0.30;;;20.80;99.90;;;;;;5017781;28;20041;-74
2022/05/26 07:14:19;;;;;;;0.40;0.40;;;20.40;99.90;;;;;;5000261;28;20042;-74
2022/05/26 07:16:45;;;;;;;0.75;0.40;;;20.00;99.90;;;;;;5000864;28;20062;-75
2022/05/26 07:19:15;;;;;;;0.20;0.20;;;19.80;99.90;;;;;;5017607;28;20382;-74
2022/05/26 07:21:49;;;;;;;1.27;0.85;;;19.70;99.90;;;;;;5017468;28;20050;-74
2022/05/26 07:24:20;;;;;;;0.10;0.10;;;19.60;99.90;;;;;;5017212;28;20108;-76
2022/05/26 07:26:47;;;;;;;0.20;0.20;;;19.60;99.90;;;;;;5017436;28;20386;-76
2022/05/26 07:29:14;;;;;;;0.10;0.10;;;19.50;99.90;;;;;;5017270;28;20428;-74
2022/05/26 07:31:40;;;;;;;0.20;0.20;;;19.70;99.90;;;;;;5000259;28;20123;-75
2022/05/26 07:34:05;;;;;;;0.20;0.20;;;19.80;99.90;;;;;;5017865;28;20046;-74
2022/05/26 07:42:04;;;;;;;0.20;0.20;;;20.90;99.90;;;;;;5017140;28;20054;-76
2022/05/26 07:44:35;;;;;;;0.30;0.30;;;21.00;99.90;;;;;;5017068;28;20145;-75
2022/05/26 07:47:03;;;;;;;0.30;0.30;;;21.30;99.90;;;;;;5018379;28;20049;-74
2022/05/26 07:49:28;;;;;;;0.20;0.20;;;21.20;99.90;;;;;;5016863;28;20045;-74
2022/05/26 07:51:54;;;;;;;0.20;0.20;;;21.40;99.90;;;;;;5016723;28;20104;-75
2022/05/26 07:54:20;;;;;;;0.20;0.20;;;21.40;99.90;;;;;;5016598;28;20451;-74
2022/05/26 07:56:45;;;;;;;0.22;0.22;;;21.20;99.90;;;;;;4999514;28;20057;-75
2022/05/26 07:59:11;;;;;;;0.17;0.17;;;21.00;99.90;;;;;;5017182;28;20060;-75
2022/05/26 08:01:37;;;;;;;0.40;0.40;;;20.70;99.90;;;;;;5017025;28;20133;-76
2022/05/26 08:04:05;;;;;;;0.10;0.10;;;20.60;99.90;;;;;;5016620;28;20052;-75
2022/05/26 08:06:31;;;;;;;0.10;0.10;;;21.00;99.90;;;;;;4999578;28;20075;-75
2022/05/26 08:08:57;;;;;;;0.20;0.20;;;21.40;99.90;;;;;;4999508;28;20128;-76
2022/05/26 08:11:23;;;;;;;0.10;0.10;;;21.60;99.70;;;;;;4999848;28;20050;-74
2022/05/26 08:13:48;;;;;;;1.00;0.85;;;21.50;99.90;;;;;;5015406;28;20042;-75
2022/05/26 08:16:14;;;;;;;0.15;0.15;;;21.80;99.90;;;;;;5016898;28;20442;-74
2022/05/26 08:18:40;;;;;;;0.20;0.20;;;22.30;99.90;;;;;;4999129;28;20141;-76
2022/05/26 08:21:12;;;;;;;0.10;0.10;;;23.10;99.50;;;;;;5016489;28;20050;-75
2022/05/26 08:23:38;;;;;;;0.20;0.20;;;23.40;96.90;;;;;;4998954;28;20050;-74
2022/05/26 08:26:04;;;;;;;0.10;0.10;;;22.90;96.40;;;;;;5016269;28;20045;-75
2022/05/26 08:28:30;;;;;;;0.20;0.20;;;22.60;96.80;;;;;;4999465;28;20374;-76
2022/05/26 08:30:56;;;;;;;0.10;0.10;;;22.30;98.70;;;;;;5016295;28;20042;-75
2022/05/26 08:33:22;;;;;;;2.55;1.02;;;22.10;98.10;;;;;;5016011;28;20056;-73
2022/05/26 08:35:48;;;;;;;0.20;0.20;;;22.30;98.40;;;;;;5015908;28;20125;-75
2022/05/26 08:38:13;;;;;;;0.20;0.20;;;22.30;97.80;;;;;;4999152;28;20049;-75
2022/05/26 08:40:50;;;;;;;0.10;0.10;;;21.50;97.70;;;;;;5016273;28;20125;-75
2022/05/26 08:43:21;;;;;;;0.10;0.10;;;21.40;98.00;;;;;;5016275;28;20385;-75
2022/05/26 08:45:52;;;;;;;0.40;0.40;;;21.90;98.60;;;;;;5015963;28;20406;-76
2022/05/26 08:48:43;;;;;;;0.35;0.35;;;22.90;96.70;;;;;;4998312;28;20041;-75
2022/05/26 08:51:15;;;;;;;0.13;0.13;;;23.30;95.40;;;;;;4999414;28;20049;-75
2022/05/26 08:53:42;;;;;;;0.20;0.20;;;23.70;96.50;;;;;;4998466;28;20131;-74
2022/05/26 08:56:15;;;;;;;0.10;0.10;;;23.30;94.50;;;;;;4998705;28;20056;-75
2022/05/26 08:58:46;;;;;;;0.10;0.10;;;23.40;96.10;;;;;;5015551;28;20082;-75
2022/05/26 09:01:17;;;;;;;0.28;0.20;;;23.60;95.40;;;;;;5015966;28;20045;-73
2022/05/26 09:03:43;;;;;;;0.28;0.28;;;23.30;94.30;;;;;;5015395;28;20046;-74
2022/05/26 09:06:11;;;;;;;0.30;0.30;;;22.70;94.70;;;;;;4998966;28;20056;-75
2022/05/26 09:14:02;;;;;;;0.10;0.10;;;23.10;96.20;;;;;;4998237;28;20053;-75
2022/05/26 09:16:31;;;;;;;0.10;0.10;;;23.20;95.10;;;;;;5015559;28;20421;-74
2022/05/26 09:19:06;;;;;;;0.90;0.45;;;23.30;96.40;;;;;;4997905;28;20049;-75
2022/05/26 09:21:32;;;;;;;0.10;0.10;;;23.40;96.40;;;;;;4998084;28;20108;-73
2022/05/26 09:24:33;;;;;;;0.20;0.20;;;23.10;93.70;;;;;;4998023;28;20042;-74
2022/05/26 09:27:02;;;;;;;0.17;0.17;;;22.90;95.40;;;;;;5014905;28;20046;-74
2022/05/26 09:29:34;;;;;;;0.17;0.17;;;22.50;93.90;;;;;;5015067;28;20050;-73
2022/05/26 09:32:02;;;;;;;0.13;0.13;;;22.10;94.80;;;;;;5015138;28;20041;-74
2022/05/26 09:34:32;;;;;;;1.60;0.60;;;21.70;95.00;;;;;;4997819;28;20128;-76
2022/05/26 09:37:07;;;;;;;0.40;0.40;;;21.50;98.30;;;;;;5015026;28;20411;-75
2022/05/26 09:39:36;;;;;;;0.10;0.10;;;21.60;95.40;;;;;;5015339;28;20077;-74
2022/05/26 09:42:24;;;;;;;0.28;0.28;;;21.60;95.10;;;;;;4998324;28;20046;-75
2022/05/26 09:45:04;;;;;;;0.20;0.20;;;22.00;95.40;;;;;;5014429;28;20053;-74
2022/05/26 09:47:44;;;;;;;0.25;0.25;;;22.40;97.80;;;;;;5015199;28;20356;-74
2022/05/26 09:50:32;;;;;;;0.20;0.20;;;22.70;96.30;;;;;;5014882;28;20050;-74
2022/05/26 09:52:58;;;;;;;0.38;0.38;;;22.50;95.50;;;;;;5014544;28;20046;-76
2022/05/26 09:55:39;;;;;;;0.10;0.10;;;22.50;96.20;;;;;;4981279;28;20048;-74
2022/05/26 09:58:34;;;;;;;0.10;0.10;;;22.70;95.20;;;;;;5014962;28;20073;-74
2022/05/26 10:01:23;;;;;;;0.20;0.20;;;22.70;95.40;;;;;;5011158;28;20058;-73
2022/05/26 10:03:48;;;;;;;0.10;0.10;;;22.90;97.40;;;;;;5015219;28;20049;-75
2022/05/26 10:06:22;;;;;;;0.13;0.13;;;23.10;95.70;;;;;;5015300;28;20061;-75
2022/05/26 10:09:22;;;;;;;0.10;0.10;;;23.10;96.00;;;;;;4997927;28;20437;-74
2022/05/26 10:12:12;;;;;;;0.10;0.10;;;23.10;94.60;;;;;;4997298;28;20053;-75
2022/05/26 10:15:10;;;;;;;0.17;0.17;;;22.80;93.10;;;;;;5014685;28;20061;-73
2022/05/26 10:18:00;;;;;;;0.10;0.10;;;22.70;94.40;;;;;;5014566;28;20049;-74
2022/05/26 10:21:03;;;;;;;0.20;0.20;;;22.50;95.80;;;;;;5015167;28;20401;-72
2022/05/26 10:23:53;;;;;;;0.52;0.20;;;22.50;95.70;;;;;;5014840;28;20561;-74
2022/05/26 10:26:43;;;;;;;0.20;0.20;;;22.40;95.10;;;;;;4997338;28;20489;-75
2022/05/26 10:29:32;;;;;;;0.20;0.20;;;22.70;95.60;;;;;;5015227;28;20046;-72
2022/05/26 10:31:58;;;;;;;0.17;0.17;;;22.80;94.30;;;;;;5014705;28;20132;-73
2022/05/26 10:34:29;;;;;;;0.57;0.57;;;22.60;95.00;;;;;;5013651;28;20128;-74
2022/05/26 10:37:13;;;;;;;0.10;0.10;;;22.70;96.40;;;;;;4997283;28;20049;-73
2022/05/26 10:39:59;;;;;;;0.65;0.65;;;22.70;96.00;;;;;;5001922;28;20050;-74
2022/05/26 10:42:33;;;;;;;3.83;0.40;;;22.80;97.60;;;;;;5001035;28;20050;-73
2022/05/26 10:44:59;;;;;;;0.43;0.43;;;22.50;95.80;;;;;;5018047;28;20060;-74
2022/05/26 10:47:34;;;;;;;0.10;0.10;;;22.40;95.30;;;;;;5018056;28;20137;-73
2022/05/26 10:50:29;;;;;;;0.20;0.20;;;22.80;96.00;;;;;;5018145;28;20049;-74
2022/05/26 10:53:16;;;;;;;0.30;0.30;;;23.10;95.70;;;;;;5018269;28;20049;-73
2022/05/26 10:55:51;;;;;;;0.15;0.15;;;23.30;94.10;;;;;;5017639;28;20486;-74
2022/05/26 10:58:26;;;;;;;0.20;0.20;;;23.20;94.90;;;;;;5018008;28;20046;-74
2022/05/26 11:00:58;;;;;;;0.10;0.10;;;22.90;95.30;;;;;;5000858;28;20045;-74
2022/05/26 11:03:36;;;;;;;0.35;0.30;;;22.90;96.00;;;;;;5001162;28;20123;-75
2022/05/26 11:06:23;;;;;;;0.20;0.20;;;22.50;95.40;;;;;;5017897;28;20097;-73
2022/05/26 11:09:08;;;;;;;0.20;0.20;;;22.20;95.80;;;;;;5017824;28;20061;-74
2022/05/26 11:12:02;;;;;;;0.20;0.20;;;21.90;95.30;;;;;;5017610;28;20053;-75
2022/05/26 11:17:47;;;;;;;0.20;0.20;;;21.90;98.10;;;;;;5017290;28;19921;-74
2022/05/26 11:20:26;;;;;;;0.15;0.15;;;22.20;97.70;;;;;;5017530;28;20127;-73
2022/05/26 11:22:53;;;;;;;0.20;0.20;;;22.40;97.20;;;;;;5017192;28;20482;-73
2022/05/26 11:25:28;;;;;;;0.20;0.20;;;22.50;97.20;;;;;;5017811;28;20079;-75
2022/05/26 11:28:00;;;;;;;0.10;0.10;;;22.20;96.00;;;;;;5017369;28;20097;-75
2022/05/26 11:36:48;;;;;;;0.30;0.30;;;21.40;99.40;;;;;;5004259;28;20045;-75
2022/05/26 11:39:28;;;;;;;0.20;0.20;;;21.40;99.60;;;;;;5017093;28;20038;-74
2022/05/26 11:41:58;;;;;;;2.63;0.40;;;21.40;99.90;;;;;;5000144;28;20081;-73
2022/05/26 11:44:42;;;;;;;0.25;0.25;;;21.40;99.90;;;;;;5000052;28;20132;-73
2022/05/26 11:47:25;;;;;;;0.20;0.20;;;21.40;99.40;;;;;;5017331;28;20042;-74
2022/05/26 11:49:56;;;;;;;0.30;0.30;;;21.30;98.60;;;;;;5016459;28;20042;-74
2022/05/26 11:52:39;;;;;;;0.10;0.10;;;21.60;99.30;;;;;;5016971;28;20105;-73
2022/05/26 11:55:08;;;;;;;;;;;21.80;99.50;;;;;;5017151;28;20502;-75
2022/05/26 11:57:37;;;;;;;0.10;0.10;;;22.00;98.50;;;;;;5016910;28;19932;-72
2022/05/26 12:00:15;;;;;;;0.20;0.20;;;22.30;98.00;;;;;;5016633;28;20488;-75
2022/05/26 12:02:42;;;;;;;0.30;0.30;;;22.10;97.40;;;;;;5016983;28;20046;-73
2022/05/26 12:05:30;;;;;;;0.20;0.20;;;22.10;98.00;;;;;;5016530;28;20481;-74
2022/05/26 12:07:57;;;;;;;0.40;0.40;;;21.90;98.70;;;;;;5016689;28;20045;-73
2022/05/26 12:10:27;;;;;;;0.80;0.80;;;22.00;97.90;;;;;;4999724;28;20378;-74
2022/05/26 12:13:41;;;;;;;0.30;0.30;;;22.20;99.60;;;;;;5016413;28;20391;-73
2022/05/26 12:16:15;;;;;;;0.20;0.20;;;22.80;98.20;;;;;;4999556;28;20065;-74
2022/05/26 12:19:04;;;;;;;0.20;0.20;;;22.80;97.60;;;;;;4998977;28;20060;-73
2022/05/26 12:21:29;;;;;;;0.20;0.20;;;22.60;95.90;;;;;;5016908;28;20138;-75
2022/05/26 12:23:56;;;;;;;0.20;0.20;;;22.30;96.30;;;;;;5016834;28;20117;-75
2022/05/26 12:26:49;;;;;;;0.10;0.10;;;22.20;97.30;;;;;;5016502;28;20517;-74
2022/05/26 12:29:48;;;;;;;0.52;0.20;;;22.10;98.10;;;;;;5016181;28;20045;-75
2022/05/26 12:32:27;;;;;;;0.10;0.10;;;22.00;97.50;;;;;;4999472;28;20092;-74
2022/05/26 12:35:06;;;;;;;0.10;0.10;;;21.90;97.40;;;;;;5016477;28;20042;-74
2022/05/26 12:37:46;;;;;;;0.20;0.20;;;21.70;97.60;;;;;;5015912;28;20100;-75
2022/05/26 12:40:27;;;;;;;0.20;0.20;;;21.60;98.10;;;;;;4998808;28;20046;-73
2022/05/26 12:43:27;;;;;;;0.20;0.20;;;21.50;98.50;;;;;;5016710;28;20087;-74
2022/05/26 12:46:00;;;;;;;1.13;1.00;;;21.30;98.10;;;;;;5016031;28;20041;-73
2022/05/26 12:48:51;;;;;;;0.20;0.20;;;21.10;98.40;;;;;;4998256;28;20429;-74
2022/05/26 12:51:17;;;;;;;0.30;0.30;;;20.90;98.80;;;;;;5015872;28;20060;-73
2022/05/26 12:53:54;;;;;;;0.20;0.20;;;20.70;99.50;;;;;;5016117;28;20462;-75
2022/05/26 12:56:26;;;;;;;0.30;0.30;;;20.70;99.90;;;;;;5015738;28;20048;-73
2022/05/26 12:58:56;;;;;;;0.10;0.10;;;20.80;99.60;;;;;;5015390;28;20057;-74
2022/05/26 13:01:24;;;;;;;0.43;0.32;;;20.90;99.40;;;;;;5015010;28;20470;-74
2022/05/26 13:04:15;;;;;;;0.77;0.77;;;20.80;98.90;;;;;;4999109;28;20092;-74
2022/05/26 13:06:44;;;;;;;0.20;0.20;;;20.60;99.60;;;;;;5015378;28;20056;-74
2022/05/26 13:09:29;;;;;;;0.20;0.20;;;20.40;98.50;;;;;;5015476;28;20053;-74
2022/05/26 13:12:01;;;;;;;0.52;0.40;;;20.50;99.60;;;;;;5015452;28;20045;-73
2022/05/26 13:14:48;;;;;;;1.92;1.75;;;20.60;99.20;;;;;;5015348;28;20125;-74
2022/05/26 13:17:22;;;;;;;0.20;0.20;;;20.70;98.40;;;;;;5015315;28;20093;-74
2022/05/26 13:20:04;;;;;;;0.20;0.20;;;20.70;98.80;;;;;;4994439;28;20475;-75
2022/05/26 13:22:35;;;;;;;0.20;0.20;;;20.70;99.20;;;;;;4996142;28;20077;-74
2022/05/26 13:25:07;;;;;;;0.20;0.20;;;20.60;98.30;;;;;;4995582;28;20125;-73
2022/05/26 13:27:52;;;;;;;0.45;0.45;;;20.30;98.30;;;;;;4979202;28;20042;-75
2022/05/26 13:33:11;;;;;;;0.22;0.22;;;20.10;99.80;;;;;;4995407;28;20139;-75
2022/05/26 13:35:48;;;;;;;0.20;0.20;;;20.00;99.60;;;;;;4995787;28;20046;-74
2022/05/26 13:38:35;;;;;;;0.22;0.22;;;20.00;99.90;;;;;;4995529;28;20050;-73
2022/05/26 13:41:03;;;;;;;0.20;0.20;;;19.90;99.90;;;;;;4996387;28;20057;-73
2022/05/26 13:43:32;;;;;;;2.08;0.45;;;20.10;99.90;;;;;;4979006;28;20046;-73
2022/05/26 13:45:59;;;;;;;0.20;0.20;;;20.20;99.90;;;;;;4995378;28;20046;-74
2022/05/26 13:48:42;;;;;;;5.93;0.55;;;20.20;99.90;;;;;;4995343;28;20062;-73
2022/05/26 13:51:12;;;;;;;4.82;0.65;;;20.20;99.90;;;;;;4995579;28;20045;-74
2022/05/26 13:53:45;;;;;;;0.20;0.20;;;20.20;99.90;;;;;;4978426;28;20065;-74
2022/05/26 13:56:20;;;;;;;0.40;0.40;;;20.10;99.90;;;;;;4995537;28;20050;-75
2022/05/26 13:58:56;;;;;;;1.75;1.00;;;20.10;99.40;;;;;;4978556;28;20050;-75